createdAt,value
2022-07-25T00:01:52.258Z,3.40
2022-07-25T00:05:55.557Z,4.07
2022-07-25T00:09:58.730Z,3.60
2022-07-25T00:14:03.696Z,3.40
2022-07-25T00:18:07.191Z,3.60
2022-07-25T00:22:10.311Z,3.78
2022-07-25T00:26:14.478Z,3.75
2022-07-25T00:30:18.956Z,3.60
2022-07-25T00:34:22.280Z,3.97
2022-07-25T00:38:25.446Z,3.97
2022-07-25T00:42:29.444Z,3.70
2022-07-25T00:46:34.111Z,3.42
2022-07-25T00:50:38.030Z,4.00
2022-07-25T00:54:41.103Z,4.20
2022-07-25T00:58:46.817Z,4.00
2022-07-25T01:02:51.533Z,3.63
2022-07-25T01:06:54.817Z,3.53
2022-07-25T01:10:57.940Z,3.85
2022-07-25T01:15:01.346Z,3.88
2022-07-25T01:19:05.810Z,3.70
2022-07-25T01:23:10.506Z,3.50
2022-07-25T01:27:17.424Z,3.83
2022-07-25T01:31:20.800Z,3.38
2022-07-25T01:35:24.444Z,3.45
2022-07-25T01:39:28.946Z,3.33
2022-07-25T01:43:32.223Z,3.35
2022-07-25T01:47:35.317Z,3.28
2022-07-25T01:51:38.431Z,3.28
2022-07-25T01:55:43.052Z,3.13
2022-07-25T01:59:46.164Z,2.88
2022-07-25T02:03:49.269Z,3.55
2022-07-25T02:07:53.572Z,3.15
2022-07-25T02:11:58.265Z,3.30
2022-07-25T02:16:01.647Z,3.20
2022-07-25T02:20:05.433Z,3.50
2022-07-25T02:24:09.457Z,3.28
2022-07-25T02:28:14.327Z,3.25
2022-07-25T02:32:17.617Z,3.30
2022-07-25T02:36:20.895Z,3.35
2022-07-25T02:40:24.312Z,3.40
2022-07-25T02:44:28.994Z,3.88
2022-07-25T02:48:32.328Z,3.42
2022-07-25T02:52:35.461Z,3.78
2022-07-25T02:56:38.548Z,3.08
2022-07-25T03:00:44.362Z,3.25
2022-07-25T03:04:47.719Z,3.20
2022-07-25T03:08:51.043Z,3.40
2022-07-25T03:12:54.705Z,3.63
2022-07-25T03:16:59.294Z,3.10
2022-07-25T03:21:02.684Z,3.85
2022-07-25T03:25:06.644Z,3.97
2022-07-25T03:29:19.313Z,3.25
2022-07-25T03:33:23.786Z,3.75
2022-07-25T03:37:27.694Z,3.70
2022-07-25T03:41:30.951Z,3.70
2022-07-25T03:45:35.066Z,3.85
2022-07-25T03:49:39.582Z,3.67
2022-07-25T03:54:00.188Z,3.67
2022-07-25T03:58:03.274Z,3.60
2022-07-25T04:02:06.463Z,3.63
2022-07-25T04:06:11.511Z,3.35
2022-07-25T04:10:14.608Z,3.63
2022-07-25T04:14:17.723Z,3.53
2022-07-25T04:18:22.299Z,3.88
2022-07-25T04:22:32.070Z,3.72
2022-07-25T04:26:35.151Z,3.83
2022-07-25T04:30:38.743Z,4.00
2022-07-25T04:34:43.745Z,4.03
2022-07-25T04:38:48.336Z,3.80
2022-07-25T04:42:51.509Z,3.50
2022-07-25T04:46:55.184Z,3.33
2022-07-25T04:50:58.327Z,3.50
2022-07-25T04:55:04.179Z,3.00
2022-07-25T04:59:07.436Z,3.30
2022-07-25T05:03:10.546Z,3.35
2022-07-25T05:07:14.202Z,3.63
2022-07-25T05:11:18.714Z,3.50
2022-07-25T05:15:22.469Z,3.45
2022-07-25T05:19:26.127Z,3.65
2022-07-25T05:23:29.396Z,3.65
2022-07-25T05:27:34.103Z,3.78
2022-07-25T05:31:37.454Z,4.03
2022-07-25T05:35:41.877Z,4.13
2022-07-25T05:39:45.508Z,4.55
2022-07-25T05:43:50.194Z,3.88
2022-07-25T05:47:53.312Z,4.50
2022-07-25T05:51:56.571Z,3.90
2022-07-25T05:55:59.848Z,4.20
2022-07-25T06:00:06.282Z,4.25
2022-07-25T06:04:09.712Z,4.15
2022-07-25T06:08:13.432Z,4.40
2022-07-25T06:12:16.548Z,3.92
2022-07-25T06:16:22.074Z,3.88
2022-07-25T06:20:25.239Z,3.75
2022-07-25T06:24:28.420Z,3.22
2022-07-25T06:28:31.764Z,3.75
2022-07-25T06:32:36.235Z,3.15
2022-07-25T06:36:39.485Z,2.78
2022-07-25T06:40:42.616Z,2.75
2022-07-25T06:44:45.728Z,2.83
2022-07-25T06:48:50.965Z,2.38
2022-07-25T06:52:55.066Z,2.30
2022-07-25T06:56:58.206Z,2.40
2022-07-25T07:01:02.358Z,2.45
2022-07-25T07:05:07.850Z,2.13
2022-07-25T07:09:11.264Z,2.20
2022-07-25T07:13:23.730Z,2.05
2022-07-25T07:17:27.590Z,1.85
2022-07-25T07:21:32.198Z,2.20
2022-07-25T07:25:35.745Z,1.95
2022-07-25T07:29:39.075Z,2.13
2022-07-25T07:33:42.378Z,1.95
2022-07-25T07:37:47.875Z,1.90
2022-07-25T07:41:53.898Z,1.85
2022-07-25T07:45:59.397Z,2.17
2022-07-25T07:50:02.615Z,1.90
2022-07-25T07:54:24.736Z,1.80
2022-07-25T07:58:28.031Z,1.98
2022-07-25T08:02:31.588Z,1.80
2022-07-25T08:06:34.849Z,1.85
2022-07-25T08:10:43.113Z,1.80
2022-07-25T08:14:46.288Z,1.60
2022-07-25T08:18:49.497Z,1.73
2022-07-25T08:22:56.406Z,2.20
2022-07-25T08:27:01.483Z,1.92
2022-07-25T08:31:04.687Z,2.00
2022-07-25T08:35:11.495Z,1.80
2022-07-25T08:39:14.789Z,2.00
2022-07-25T08:43:20.551Z,1.80
2022-07-25T08:47:24.407Z,2.05
2022-07-25T08:51:28.259Z,2.15
2022-07-25T08:55:31.431Z,1.90
2022-07-25T08:59:36.158Z,2.45
2022-07-25T09:03:40.408Z,2.10
2022-07-25T09:07:43.571Z,2.30
2022-07-25T09:11:46.638Z,2.00
2022-07-25T09:15:53.776Z,2.55
2022-07-25T09:19:58.728Z,2.80
2022-07-25T09:24:09.891Z,2.60
2022-07-25T09:28:18.052Z,2.47
2022-07-25T09:32:25.407Z,2.50
2022-07-25T09:36:28.568Z,2.60
2022-07-25T09:40:32.032Z,2.70
2022-07-25T09:44:35.492Z,2.60
2022-07-25T09:48:45.342Z,2.72
2022-07-25T09:52:49.135Z,2.70
2022-07-25T09:56:53.520Z,2.63
2022-07-25T10:01:01.931Z,2.58
2022-07-25T10:05:14.547Z,2.83
2022-07-25T10:09:18.314Z,2.88
2022-07-25T10:13:31.015Z,3.45
2022-07-25T10:17:35.233Z,3.03
2022-07-25T10:21:40.027Z,3.17
2022-07-25T10:25:48.830Z,2.88
2022-07-25T10:29:55.084Z,3.30
2022-07-25T10:34:00.260Z,3.20
2022-07-25T10:38:06.615Z,3.13
2022-07-25T10:42:14.789Z,3.40
2022-07-25T10:46:22.950Z,3.40
2022-07-25T10:50:53.426Z,3.80
2022-07-25T10:54:57.936Z,3.50
2022-07-25T10:59:03.021Z,3.35
2022-07-25T11:03:06.791Z,3.47
2022-07-25T11:07:10.716Z,3.28
2022-07-25T11:11:15.374Z,3.25
2022-07-25T11:15:24.044Z,3.15
2022-07-25T11:19:30.291Z,3.80
2022-07-25T11:23:33.489Z,3.15
2022-07-25T11:27:37.947Z,2.90
2022-07-25T11:31:41.563Z,3.22
2022-07-25T11:35:45.016Z,3.40
2022-07-25T11:39:49.481Z,2.95
2022-07-25T11:43:53.982Z,3.00
2022-07-25T11:48:05.985Z,3.00
2022-07-25T11:52:20.160Z,2.78
2022-07-25T12:00:51.160Z,2.80
2022-07-25T12:04:59.337Z,2.75
2022-07-25T12:09:18.018Z,2.83
2022-07-25T12:13:26.504Z,2.88
2022-07-25T12:17:31.821Z,3.10
2022-07-25T12:21:34.911Z,3.17
2022-07-25T12:25:40.086Z,3.03
2022-07-25T12:29:43.251Z,2.90
2022-07-25T12:33:49.092Z,2.90
2022-07-25T12:37:53.016Z,2.97
2022-07-25T12:41:56.521Z,2.92
2022-07-25T12:45:59.662Z,2.80
2022-07-25T12:50:05.228Z,3.25
2022-07-25T12:54:08.767Z,2.70
2022-07-25T12:58:15.307Z,2.95
2022-07-25T13:02:18.448Z,2.85
2022-07-25T13:06:23.666Z,3.03
2022-07-25T13:10:26.904Z,3.35
2022-07-25T13:14:30.531Z,3.38
2022-07-25T13:18:33.883Z,3.10
2022-07-25T13:22:38.608Z,3.10
2022-07-25T13:26:41.978Z,3.10
2022-07-25T13:30:45.103Z,3.00
2022-07-25T13:34:48.506Z,2.75
2022-07-25T13:38:53.045Z,2.90
2022-07-25T13:42:56.151Z,3.15
2022-07-25T13:46:59.752Z,3.20
2022-07-25T13:51:03.017Z,3.08
2022-07-25T13:55:10.396Z,2.95
2022-07-25T13:59:20.362Z,3.42
2022-07-25T14:03:24.235Z,2.60
2022-07-25T14:07:27.487Z,3.13
2022-07-25T14:11:32.004Z,3.20
2022-07-25T14:15:35.398Z,3.15
2022-07-25T14:19:38.708Z,2.90
2022-07-25T14:23:42.059Z,2.97
2022-07-25T14:27:46.537Z,3.05
2022-07-25T14:31:49.774Z,3.08
2022-07-25T14:35:53.254Z,3.17
2022-07-25T14:39:56.347Z,3.30
2022-07-25T14:44:00.977Z,3.50
2022-07-25T14:48:04.187Z,2.50
2022-07-25T14:52:07.607Z,3.17
2022-07-25T14:56:11.321Z,3.25
2022-07-25T15:00:16.829Z,2.97
2022-07-25T15:04:22.147Z,2.70
2022-07-25T15:08:25.560Z,3.10
2022-07-25T15:12:28.642Z,3.10
2022-07-25T15:16:33.282Z,2.97
2022-07-25T15:20:36.652Z,3.15
2022-07-25T15:25:16.849Z,2.97
2022-07-25T15:29:03.093Z,3.35
2022-07-25T15:33:07.715Z,3.47
2022-07-25T15:37:11.820Z,3.30
2022-07-25T15:41:14.936Z,3.22
2022-07-25T15:45:36.500Z,3.00
2022-07-25T15:49:41.210Z,3.20
2022-07-25T15:53:44.368Z,2.97
2022-07-25T15:57:47.724Z,3.30
2022-07-25T16:01:50.855Z,3.42
2022-07-25T16:05:56.696Z,3.08
2022-07-25T16:09:59.991Z,3.35
2022-07-25T16:14:03.391Z,3.35
2022-07-25T16:18:07.132Z,3.20
2022-07-25T16:22:11.855Z,2.85
2022-07-25T16:26:15.232Z,3.30
2022-07-25T16:30:18.881Z,3.10
2022-07-25T16:34:27.086Z,3.22
2022-07-25T16:38:34.301Z,3.25
2022-07-25T16:42:38.028Z,3.40
2022-07-25T16:46:42.226Z,3.30
2022-07-25T16:50:45.432Z,3.50
2022-07-25T16:54:50.353Z,3.63
2022-07-25T16:58:53.925Z,3.50
2022-07-25T17:02:57.203Z,3.00
2022-07-25T17:07:00.503Z,3.63
2022-07-25T17:11:06.312Z,3.50
2022-07-25T17:15:10.752Z,3.50
2022-07-25T17:19:14.122Z,3.30
2022-07-25T17:23:17.354Z,3.30
2022-07-25T17:27:22.087Z,3.25
2022-07-25T17:31:25.488Z,3.47
2022-07-25T17:35:29.212Z,3.65
2022-07-25T17:39:33.576Z,3.67
2022-07-25T17:43:38.445Z,3.88
2022-07-25T17:47:41.884Z,3.78
2022-07-25T17:51:45.146Z,3.72
2022-07-25T17:55:48.221Z,3.67
2022-07-25T17:59:52.858Z,3.63
2022-07-25T18:03:55.939Z,3.78
2022-07-25T18:07:59.374Z,3.78
2022-07-25T18:12:02.475Z,3.45
2022-07-25T18:16:09.257Z,3.85
2022-07-25T18:20:14.054Z,3.97
2022-07-25T18:24:17.170Z,4.03
2022-07-25T18:28:20.597Z,4.00
2022-07-25T18:32:25.122Z,3.75
2022-07-25T18:36:29.707Z,3.83
2022-07-25T18:40:33.187Z,3.70
2022-07-25T18:44:36.460Z,3.78
2022-07-25T18:48:43.556Z,3.80
2022-07-25T18:52:46.809Z,4.22
2022-07-25T18:56:50.144Z,3.85
2022-07-25T19:00:53.493Z,4.10
2022-07-25T19:04:58.309Z,3.97
2022-07-25T19:09:01.689Z,4.00
2022-07-25T19:13:04.808Z,4.50
2022-07-25T19:17:07.960Z,3.90
2022-07-25T19:21:12.611Z,3.70
2022-07-25T19:25:15.949Z,3.72
2022-07-25T19:29:19.518Z,4.00
2022-07-25T19:33:22.692Z,4.07
2022-07-25T19:37:27.232Z,3.80
2022-07-25T19:41:31.575Z,4.13
2022-07-25T19:45:34.675Z,4.38
2022-07-25T19:49:39.578Z,3.92
2022-07-25T19:53:44.095Z,3.90
2022-07-25T19:57:47.279Z,3.90
2022-07-25T20:01:50.478Z,3.80
2022-07-25T20:05:53.704Z,3.30
2022-07-25T20:09:58.339Z,3.47
2022-07-25T20:14:01.903Z,4.15
2022-07-25T20:18:05.607Z,4.07
2022-07-25T20:22:08.911Z,3.58
2022-07-25T20:26:14.233Z,3.75
2022-07-25T20:30:18.085Z,3.83
2022-07-25T20:34:21.859Z,3.70
2022-07-25T20:38:28.522Z,4.07
2022-07-25T20:42:33.178Z,3.55
2022-07-25T20:46:36.769Z,3.60
2022-07-25T20:50:40.556Z,3.42
2022-07-25T20:54:43.899Z,3.95
2022-07-25T20:58:48.556Z,3.55
2022-07-25T21:02:51.917Z,3.85
2022-07-25T21:06:56.737Z,3.88
2022-07-25T21:11:00.008Z,3.38
2022-07-25T21:15:05.631Z,3.85
2022-07-25T21:19:09.150Z,4.13
2022-07-25T21:23:12.590Z,4.10
2022-07-25T21:27:15.768Z,3.70
2022-07-25T21:31:20.712Z,3.80
2022-07-25T21:35:24.119Z,3.95
2022-07-25T21:39:27.493Z,3.83
2022-07-25T21:43:31.462Z,3.80
2022-07-25T21:47:36.188Z,4.20
2022-07-25T21:51:40.933Z,3.83
2022-07-25T21:55:44.487Z,3.83
2022-07-25T21:59:47.613Z,3.85
2022-07-25T22:03:52.966Z,4.20
2022-07-25T22:07:56.411Z,4.45
2022-07-25T22:12:00.208Z,4.40
2022-07-25T22:16:03.632Z,4.53
2022-07-25T22:20:09.814Z,4.53
2022-07-25T22:24:13.403Z,4.18
2022-07-25T22:28:16.888Z,4.05
2022-07-25T22:32:20.186Z,4.53
2022-07-25T22:36:24.614Z,4.25
2022-07-25T22:40:27.679Z,4.20
2022-07-25T22:44:30.981Z,4.05
2022-07-25T22:48:34.192Z,4.35
2022-07-25T22:52:38.890Z,4.20
2022-07-25T22:56:42.228Z,4.13
2022-07-25T23:00:45.595Z,4.30
2022-07-25T23:04:49.007Z,4.30
2022-07-25T23:08:54.091Z,4.60
2022-07-25T23:12:57.125Z,4.20
2022-07-25T23:17:20.050Z,4.65
2022-07-25T23:21:23.268Z,4.70
2022-07-25T23:25:27.909Z,3.90
2022-07-25T23:29:31.027Z,4.03
2022-07-25T23:33:34.667Z,4.28
2022-07-25T23:37:37.830Z,4.07
2022-07-25T23:41:42.350Z,4.05
2022-07-25T23:45:45.619Z,4.30
2022-07-25T23:49:50.992Z,4.28
2022-07-25T23:53:54.184Z,4.20
2022-07-25T23:57:58.935Z,4.35
